createdAt,value
2023-03-02T00:00:46.571Z,-0.40
2023-03-02T00:08:20.626Z,-0.30
2023-03-02T00:10:50.055Z,-0.30
2023-03-02T00:13:20.878Z,-0.20
2023-03-02T00:18:19.036Z,-0.20
2023-03-02T00:20:49.667Z,-0.20
2023-03-02T00:23:20.340Z,-0.20
2023-03-02T00:28:17.377Z,-0.30
2023-03-02T00:33:17.387Z,-0.50
2023-03-02T00:38:18.044Z,-0.70
2023-03-02T00:40:47.146Z,-0.80
2023-03-02T00:43:18.619Z,-0.80
2023-03-02T00:48:15.179Z,-0.90
2023-03-02T00:50:44.579Z,-0.90
2023-03-02T00:53:13.833Z,-0.90
2023-03-02T00:58:16.177Z,-0.80
2023-03-02T01:00:44.241Z,-0.90
2023-03-02T01:05:44.937Z,-1.30
2023-03-02T01:08:13.748Z,-1.40
2023-03-02T01:10:44.269Z,-1.50
2023-03-02T01:13:13.456Z,-1.50
2023-03-02T01:18:12.239Z,-1.80
2023-03-02T01:20:42.337Z,-2.10
2023-03-02T01:23:11.696Z,-2.10
2023-03-02T01:25:39.831Z,-2.20
2023-03-02T01:28:10.358Z,-2.20
2023-03-02T01:30:38.709Z,-2.20
2023-03-02T01:33:07.854Z,-2.00
2023-03-02T01:38:05.488Z,-1.80
2023-03-02T01:40:33.438Z,-2.00
2023-03-02T01:43:04.703Z,-2.10
2023-03-02T01:45:51.746Z,-2.20
2023-03-02T01:48:33.642Z,-2.30
2023-03-02T01:53:36.501Z,-2.30
2023-03-02T01:56:06.743Z,-2.30
2023-03-02T02:01:15.672Z,-2.00
2023-03-02T02:03:46.500Z,-1.90
2023-03-02T02:08:48.471Z,-2.00
2023-03-02T02:11:18.151Z,-2.10
2023-03-02T02:13:58.873Z,-2.20
2023-03-02T02:16:28.344Z,-2.30
2023-03-02T02:18:57.952Z,-2.30
2023-03-02T02:24:09.176Z,-2.30
2023-03-02T02:29:14.685Z,-2.30
2023-03-02T02:34:22.570Z,-2.20
2023-03-02T02:36:56.242Z,-2.10
2023-03-02T02:42:02.794Z,-2.00
2023-03-02T02:49:36.276Z,-2.30
2023-03-02T02:52:07.201Z,-2.50
2023-03-02T02:54:39.088Z,-2.60
2023-03-02T02:59:44.609Z,-2.40
2023-03-02T03:07:21.053Z,-1.80
2023-03-02T03:09:55.536Z,-1.70
2023-03-02T03:12:30.371Z,-1.60
2023-03-02T03:14:58.730Z,-1.50
2023-03-02T03:17:28.316Z,-1.50
2023-03-02T03:22:40.637Z,-1.40
2023-03-02T03:25:15.587Z,-1.30
2023-03-02T03:27:49.052Z,-1.30
2023-03-02T03:30:17.727Z,-1.30
2023-03-02T03:35:18.165Z,-1.50
2023-03-02T03:37:49.628Z,-1.70
2023-03-02T03:40:20.246Z,-1.80
2023-03-02T03:42:50.554Z,-1.90
2023-03-02T03:50:20.106Z,-2.10
2023-03-02T03:52:50.842Z,-2.20
2023-03-02T03:58:01.502Z,-2.30
2023-03-02T04:00:30.966Z,-2.30
2023-03-02T04:03:07.593Z,-2.10
2023-03-02T04:05:35.595Z,-2.10
2023-03-02T04:08:04.880Z,-2.00
2023-03-02T04:10:35.185Z,-1.90
2023-03-02T04:13:07.085Z,-1.80
2023-03-02T04:15:37.152Z,-1.70
2023-03-02T04:18:06.348Z,-1.70
2023-03-02T04:23:05.705Z,-1.70
2023-03-02T04:28:10.573Z,-1.80
2023-03-02T04:35:40.665Z,-1.80
2023-03-02T04:38:09.917Z,-1.80
2023-03-02T04:40:37.908Z,-1.70
2023-03-02T04:43:08.297Z,-1.80
2023-03-02T04:45:39.359Z,-1.80
2023-03-02T04:48:08.133Z,-1.70
2023-03-02T04:50:38.382Z,-1.70
2023-03-02T04:53:06.351Z,-1.60
2023-03-02T04:55:34.304Z,-1.60
2023-03-02T05:03:05.206Z,-1.70
2023-03-02T05:05:34.897Z,-1.60
2023-03-02T05:08:03.169Z,-1.60
2023-03-02T05:10:32.571Z,-1.70
2023-03-02T05:15:35.672Z,-1.80
2023-03-02T05:23:07.973Z,-2.10
2023-03-02T05:25:37.659Z,-2.30
2023-03-02T05:28:06.449Z,-2.30
2023-03-02T05:35:37.244Z,-2.70
2023-03-02T05:38:06.429Z,-2.90
2023-03-02T05:45:36.143Z,-3.00
2023-03-02T05:50:37.740Z,-3.00
2023-03-02T05:58:09.036Z,-2.70
2023-03-02T06:00:37.076Z,-2.60
2023-03-02T06:05:37.460Z,-2.40
2023-03-02T06:08:06.193Z,-2.30
2023-03-02T06:10:34.866Z,-2.30
2023-03-02T06:13:03.061Z,-2.30
2023-03-02T06:18:00.796Z,-2.30
2023-03-02T06:20:32.648Z,-2.40
2023-03-02T06:23:01.821Z,-2.40
2023-03-02T06:25:32.733Z,-2.30
2023-03-02T06:28:01.988Z,-2.30
2023-03-02T06:33:01.826Z,-2.30
2023-03-02T06:35:33.453Z,-2.20
2023-03-02T06:38:01.475Z,-2.10
2023-03-02T06:40:31.543Z,-2.00
2023-03-02T06:43:01.335Z,-1.90
2023-03-02T06:45:35.016Z,-1.70
2023-03-02T06:50:36.380Z,-1.30
2023-03-02T06:53:06.476Z,-1.30
2023-03-02T06:55:35.814Z,-1.00
2023-03-02T06:58:05.044Z,-0.80
2023-03-02T07:00:35.531Z,-0.70
2023-03-02T07:03:03.529Z,-0.50
2023-03-02T07:08:05.133Z,-0.10
2023-03-02T07:10:35.811Z,0.10
2023-03-02T07:13:05.766Z,0.20
2023-03-02T07:15:35.011Z,0.40
2023-03-02T07:20:35.687Z,0.60
2023-03-02T07:23:06.518Z,0.70
2023-03-02T07:25:36.998Z,0.70
2023-03-02T07:28:06.266Z,1.00
2023-03-02T07:30:35.520Z,1.10
2023-03-02T07:33:04.802Z,1.10
2023-03-02T07:35:34.061Z,1.20
2023-03-02T07:38:02.053Z,1.60
2023-03-02T07:40:35.134Z,2.30
2023-03-02T07:43:04.344Z,3.10
2023-03-02T07:45:33.623Z,3.70
2023-03-02T07:50:32.906Z,5.00
2023-03-02T07:55:30.121Z,5.80
2023-03-02T08:00:29.284Z,6.40
2023-03-02T08:02:57.412Z,6.70
2023-03-02T08:07:56.304Z,7.30
2023-03-02T08:15:29.106Z,7.90
2023-03-02T08:17:57.245Z,7.80
2023-03-02T08:22:56.207Z,8.30
2023-03-02T08:25:26.702Z,8.50
2023-03-02T08:27:54.850Z,8.80
2023-03-02T08:30:24.280Z,8.80
2023-03-02T08:32:55.113Z,9.10
2023-03-02T08:35:23.226Z,9.40
2023-03-02T08:37:52.502Z,9.50
2023-03-02T08:40:23.008Z,9.30
2023-03-02T08:42:57.100Z,9.30
2023-03-02T08:47:59.226Z,9.40
2023-03-02T08:50:27.287Z,9.50
2023-03-02T08:52:56.820Z,9.70
2023-03-02T08:55:24.822Z,9.90
2023-03-02T08:57:54.360Z,10.00
2023-03-02T09:00:22.971Z,10.00
2023-03-02T09:02:50.967Z,10.20
2023-03-02T09:05:21.493Z,10.30
2023-03-02T09:07:49.566Z,10.50
2023-03-02T09:10:20.493Z,10.70
2023-03-02T09:12:49.950Z,10.80
2023-03-02T09:15:20.674Z,10.60
2023-03-02T09:17:49.952Z,10.70
2023-03-02T09:20:21.934Z,10.80
2023-03-02T09:22:51.193Z,10.70
2023-03-02T09:25:22.651Z,10.60
2023-03-02T09:30:23.220Z,10.60
2023-03-02T09:32:51.716Z,10.50
2023-03-02T09:37:52.352Z,10.70
2023-03-02T09:43:19.768Z,11.20
2023-03-02T09:46:00.955Z,11.50
2023-03-02T09:48:38.379Z,11.60
2023-03-02T09:51:22.034Z,11.50
2023-03-02T09:53:58.979Z,11.50
2023-03-02T09:59:03.493Z,11.50
2023-03-02T10:01:41.761Z,11.80
2023-03-02T10:04:19.653Z,12.10
2023-03-02T10:06:51.876Z,12.20
2023-03-02T10:11:59.913Z,12.00
2023-03-02T10:27:26.899Z,12.60
2023-03-02T10:29:59.970Z,12.80
2023-03-02T10:32:31.369Z,13.20
2023-03-02T10:35:04.049Z,13.80
2023-03-02T10:40:04.386Z,14.00
2023-03-02T10:42:37.193Z,14.10
2023-03-02T10:45:13.052Z,14.30
2023-03-02T10:47:42.662Z,14.50
2023-03-02T10:50:23.589Z,14.50
2023-03-02T10:52:59.954Z,14.40
2023-03-02T11:00:33.209Z,14.30
2023-03-02T11:03:05.071Z,14.70
2023-03-02T11:05:36.155Z,15.00
2023-03-02T11:08:09.786Z,14.90
2023-03-02T11:10:41.922Z,14.70
2023-03-02T11:15:49.551Z,14.70
2023-03-02T11:18:25.620Z,14.70
2023-03-02T11:23:40.561Z,14.70
2023-03-02T11:26:18.222Z,14.80
2023-03-02T11:31:24.456Z,14.90
2023-03-02T11:34:18.700Z,15.10
2023-03-02T11:36:58.484Z,15.10
2023-03-02T11:44:33.356Z,15.20
2023-03-02T11:49:39.059Z,15.00
2023-03-02T11:52:18.129Z,15.10
2023-03-02T11:54:54.356Z,14.90
2023-03-02T11:57:30.328Z,15.00
2023-03-02T11:59:59.456Z,15.00
2023-03-02T12:10:05.906Z,15.70
2023-03-02T12:12:45.760Z,15.70
2023-03-02T12:18:46.145Z,15.80
2023-03-02T12:21:18.999Z,15.80
2023-03-02T12:24:03.974Z,16.00
2023-03-02T12:26:37.018Z,16.00
2023-03-02T12:29:23.579Z,16.30
2023-03-02T12:37:04.289Z,16.00
2023-03-02T12:47:48.689Z,15.10
2023-03-02T12:50:21.100Z,15.40
2023-03-02T12:52:58.319Z,15.70
2023-03-02T12:55:28.531Z,15.90
2023-03-02T13:00:33.080Z,16.50
2023-03-02T13:08:06.392Z,16.20
2023-03-02T13:10:41.131Z,16.30
2023-03-02T13:13:18.851Z,16.40
2023-03-02T13:18:19.613Z,15.90
2023-03-02T13:20:49.260Z,15.80
2023-03-02T13:23:20.271Z,15.60
2023-03-02T13:25:52.238Z,15.80
2023-03-02T13:31:05.731Z,15.80
2023-03-02T13:33:36.083Z,15.70
2023-03-02T13:36:07.192Z,15.70
2023-03-02T13:41:08.911Z,15.90
2023-03-02T13:46:28.315Z,16.30
2023-03-02T13:49:09.680Z,16.00
2023-03-02T13:51:42.307Z,15.80
2023-03-02T13:54:20.493Z,16.20
2023-03-02T13:59:26.070Z,16.10
2023-03-02T14:01:54.411Z,15.80
2023-03-02T14:04:24.476Z,15.50
2023-03-02T14:06:55.386Z,15.40
2023-03-02T14:09:27.068Z,15.40
2023-03-02T14:11:58.266Z,15.50
2023-03-02T14:22:02.524Z,15.40
2023-03-02T14:24:30.755Z,15.50
2023-03-02T14:27:00.112Z,15.50
2023-03-02T14:29:33.347Z,13.40
2023-03-02T14:32:07.697Z,15.20
2023-03-02T14:39:40.095Z,15.10
2023-03-02T14:42:14.410Z,14.80
2023-03-02T14:47:16.534Z,14.40
2023-03-02T14:49:44.709Z,13.80
2023-03-02T14:52:18.217Z,13.40
2023-03-02T14:54:51.300Z,13.00
2023-03-02T14:57:23.308Z,13.00
2023-03-02T15:04:57.713Z,13.10
2023-03-02T15:09:59.733Z,13.10
2023-03-02T15:14:58.889Z,12.30
2023-03-02T15:17:29.849Z,11.60
2023-03-02T15:20:00.281Z,11.00
2023-03-02T15:22:29.692Z,10.60
2023-03-02T15:24:58.890Z,10.30
2023-03-02T15:27:29.661Z,9.90
2023-03-02T15:29:59.124Z,9.50
2023-03-02T15:32:30.603Z,9.20
2023-03-02T15:34:59.774Z,9.20
2023-03-02T15:39:58.086Z,9.10
2023-03-02T15:42:27.734Z,9.00
2023-03-02T15:44:55.980Z,8.90
2023-03-02T15:52:24.130Z,8.50
2023-03-02T15:54:52.318Z,8.30
2023-03-02T15:57:21.733Z,8.10
2023-03-02T15:59:49.735Z,8.00
2023-03-02T16:14:49.257Z,7.10
2023-03-02T16:17:20.399Z,6.70
2023-03-02T16:19:51.078Z,6.20
2023-03-02T16:24:51.255Z,5.30
2023-03-02T16:27:19.283Z,4.90
2023-03-02T16:29:48.523Z,4.70
2023-03-02T16:34:47.553Z,4.20
2023-03-02T16:39:47.567Z,3.90
2023-03-02T16:49:48.376Z,3.20
2023-03-02T16:52:17.714Z,3.10
2023-03-02T16:54:47.805Z,2.90
2023-03-02T16:57:17.270Z,2.80
2023-03-02T16:59:45.289Z,2.60
2023-03-02T17:02:15.707Z,2.40
2023-03-02T17:04:45.225Z,2.40
2023-03-02T17:09:46.987Z,2.20
2023-03-02T17:12:17.440Z,2.10
2023-03-02T17:17:15.432Z,1.90
2023-03-02T17:22:15.857Z,1.80
2023-03-02T17:27:24.544Z,1.60
2023-03-02T17:29:53.816Z,1.50
2023-03-02T17:32:23.883Z,1.40
2023-03-02T17:34:53.059Z,1.50
2023-03-02T17:39:51.106Z,1.40
2023-03-02T17:42:21.687Z,1.50
2023-03-02T17:44:49.712Z,1.40
2023-03-02T17:49:49.443Z,1.60
2023-03-02T17:52:21.133Z,1.70
2023-03-02T17:54:49.109Z,1.60
2023-03-02T17:59:53.633Z,1.60
2023-03-02T18:07:21.894Z,1.70
2023-03-02T18:09:49.868Z,1.70
2023-03-02T18:12:19.173Z,1.70
2023-03-02T18:14:48.356Z,1.70
2023-03-02T18:17:21.929Z,1.80
2023-03-02T18:19:49.960Z,1.70
2023-03-02T18:22:19.165Z,1.80
2023-03-02T18:27:19.895Z,1.80
2023-03-02T18:29:49.216Z,1.70
2023-03-02T18:37:18.441Z,1.50
2023-03-02T18:39:48.031Z,1.50
2023-03-02T18:42:17.545Z,1.50
2023-03-02T18:44:45.638Z,1.40
2023-03-02T18:49:48.215Z,1.50
2023-03-02T18:52:19.042Z,1.40
2023-03-02T18:54:49.444Z,1.40
2023-03-02T18:59:47.151Z,1.40
2023-03-02T19:04:44.734Z,1.40
2023-03-02T19:07:14.060Z,1.50
2023-03-02T19:12:12.268Z,1.40
2023-03-02T19:14:42.845Z,1.60
2023-03-02T19:17:12.220Z,1.40
2023-03-02T19:22:11.956Z,1.30
2023-03-02T19:24:44.244Z,1.30
2023-03-02T19:29:44.749Z,1.30
2023-03-02T19:32:15.276Z,1.30
2023-03-02T19:34:44.553Z,1.30
2023-03-02T19:39:42.711Z,1.30
2023-03-02T19:42:12.045Z,1.20
2023-03-02T19:44:42.525Z,1.20
2023-03-02T19:47:10.524Z,1.30
2023-03-02T19:49:39.911Z,1.30
2023-03-02T19:54:40.651Z,1.30
2023-03-02T19:57:10.327Z,1.30
2023-03-02T20:02:11.090Z,1.30
2023-03-02T20:04:40.491Z,1.30
2023-03-02T20:07:08.450Z,1.30
2023-03-02T20:09:38.022Z,1.20
2023-03-02T20:14:40.700Z,1.30
2023-03-02T20:17:10.836Z,1.20
2023-03-02T20:19:40.053Z,1.20
2023-03-02T20:22:09.808Z,1.20
2023-03-02T20:27:09.263Z,1.30
2023-03-02T20:32:10.458Z,1.40
2023-03-02T20:34:43.378Z,1.30
2023-03-02T20:37:14.499Z,1.30
2023-03-02T20:42:15.262Z,1.40
2023-03-02T20:44:45.858Z,1.30
2023-03-02T20:47:17.073Z,1.40
2023-03-02T20:49:47.486Z,1.30
2023-03-02T20:52:16.739Z,1.30
2023-03-02T20:54:46.413Z,1.30
2023-03-02T20:59:48.328Z,1.30
2023-03-02T21:02:19.871Z,1.30
2023-03-02T21:04:49.569Z,1.30
2023-03-02T21:07:17.681Z,1.30
2023-03-02T21:09:47.515Z,1.30
2023-03-02T21:12:16.780Z,1.40
2023-03-02T21:14:48.573Z,1.40
2023-03-02T21:17:18.076Z,1.40
2023-03-02T21:19:47.682Z,1.40
2023-03-02T21:22:16.876Z,1.40
2023-03-02T21:24:44.838Z,1.40
2023-03-02T21:27:13.443Z,1.40
2023-03-02T21:32:14.096Z,1.40
2023-03-02T21:39:44.230Z,1.50
2023-03-02T21:42:12.563Z,1.50
2023-03-02T21:47:10.106Z,1.50
2023-03-02T21:49:40.878Z,1.50
2023-03-02T21:54:38.930Z,1.50
2023-03-02T21:57:08.249Z,1.40
2023-03-02T22:04:37.180Z,1.30
2023-03-02T22:07:06.727Z,1.20
2023-03-02T22:09:37.170Z,1.30
2023-03-02T22:12:12.158Z,1.20
2023-03-02T22:14:41.364Z,1.20
2023-03-02T22:17:16.756Z,1.20
2023-03-02T22:19:46.746Z,1.20
2023-03-02T22:22:19.669Z,1.30
2023-03-02T22:24:50.693Z,1.30
2023-03-02T22:29:53.381Z,1.30
2023-03-02T22:32:24.039Z,1.30
2023-03-02T22:34:53.428Z,1.20
2023-03-02T22:37:24.400Z,1.20
2023-03-02T22:39:56.384Z,1.20
2023-03-02T22:42:27.442Z,1.20
2023-03-02T22:45:03.487Z,1.20
2023-03-02T22:47:33.335Z,1.10
2023-03-02T22:50:22.948Z,1.10
2023-03-02T22:55:33.146Z,1.10
2023-03-02T22:58:02.392Z,1.10
2023-03-02T23:00:39.790Z,1.10
2023-03-02T23:03:17.449Z,1.10
2023-03-02T23:05:49.088Z,1.10
2023-03-02T23:10:52.154Z,1.20
2023-03-02T23:13:21.922Z,1.10
2023-03-02T23:15:51.578Z,1.10
2023-03-02T23:18:23.806Z,1.10
2023-03-02T23:20:54.931Z,1.10
2023-03-02T23:23:27.527Z,1.10
2023-03-02T23:25:57.950Z,1.10
2023-03-02T23:28:27.203Z,1.10
2023-03-02T23:33:24.834Z,1.10
2023-03-02T23:35:54.479Z,1.20
2023-03-02T23:38:25.070Z,1.20
2023-03-02T23:40:54.319Z,1.20
2023-03-02T23:43:22.402Z,1.20
2023-03-02T23:45:51.672Z,1.30
2023-03-02T23:48:19.644Z,1.30
2023-03-02T23:50:47.900Z,1.30
2023-03-02T23:53:17.565Z,1.20
2023-03-02T23:55:49.802Z,1.30
2023-03-02T23:58:18.161Z,1.40
